Aérodrome :
LOGIN :

S'inscrire | Disclaimer

   EN    FR    IT 

 










Légende :    VFR   VFR Marginal   IFR   IFR Intensif   IFR Très Intensif
Visi : 
Plafond : 
>= 8 km
>= 3000ft
5 à 8 km
1000 à 3000 ft
1500m à 5 km
500 à 1000 ft
800 à 1500m
200 à 500 ft
< 800m
< 200 ft
Symboles :   Orages  Brouillard  Fortes neiges  Fortes précipitations  Vent > 20 kt
SIGMETs :   Divers  Orages  Givrage  Turbulence  Onde Orograph.  Cendres Volcan.






- Altitude de l'aérodrome : 374 ft
- Code IATA : LIS


LPPT - Lisboa Portela

DERNIER METAR :
  • 280500Z 01003KT CAVOK 19/16 Q1018

METARs EXPIRÉS :
  • 280430Z 11003KT CAVOK 20/16 Q1018
  • 280400Z 03003KT 010V080 CAVOK 20/16 Q1018
  • 280330Z 35003KT CAVOK 20/15 Q1018
  • 280300Z 07003KT CAVOK 21/15 Q1018
  • 280230Z 33003KT 290V030 CAVOK 21/15 Q1018

TAF TAF LPPT
Valide du 28 à 00h jusqu'au 29 à 06h UTC


272300Z 2800/2906 33010KT CAVOK
BECMG 2801/2804 VRB05KT
BECMG 2815/2817 33013KT
BECMG 2820/2823 33008KT



MET'MAP, la Météo Aéronautique d'un coup d'oeil ! - Copyright ORBIFLY Décembre 2007 - Disclaimer

ORBIFLY MET'MAP TEAM :

Programmation & Développement : Alexandra Zaïnal
Sur une idée originale de : Baudouin d'Aumeries
Assistance à la programmation : Marc-Olivier Méhu
Soutien technique & logistique : Manuel Goepfert

Contact : metmap@orbifly.com




SOURCES & CREDITS :

   NOAA